Time;durP1;ratioP1;P1;durP2;ratioP2;P2;SDS_P1;SDS_P2;PMS_P1;PMS_P2;Temp;Humidity;BMP_temperature;BMP_pressure;BME280_temperature;BME280_humidity;BME280_pressure;Samples;Min_cycle;Max_cycle;Signal;HPM_P1;HPM_P2
2021/01/05 00:03:06;;;;;;;43.07;20.87;;;;;;;2.53;88.00;98303.45;250069;1148;26446;-78
2021/01/05 00:08:08;;;;;;;36.27;18.07;;;;;;;2.52;87.61;98295.77;250051;1148;22943;-79
2021/01/05 00:13:10;;;;;;;40.05;18.75;;;;;;;2.47;87.88;98291.20;249920;1148;22964;-79
2021/01/05 00:18:12;;;;;;;41.83;18.67;;;;;;;2.45;87.81;98293.30;250022;1148;23377;-79
2021/01/05 00:23:15;;;;;;;35.60;16.60;;;;;;;2.45;87.93;98290.66;250153;1148;23100;-80
2021/01/05 00:28:17;;;;;;;44.07;19.30;;;;;;;2.50;87.77;98295.19;250225;1148;22933;-78
2021/01/05 00:33:19;;;;;;;32.23;15.60;;;;;;;2.46;87.69;98292.23;250054;1147;22940;-79
2021/01/05 00:38:21;;;;;;;35.57;17.57;;;;;;;2.44;87.59;98286.41;250280;1147;22951;-78
2021/01/05 00:43:23;;;;;;;38.60;17.83;;;;;;;2.43;87.82;98284.80;250338;1147;23113;-80
2021/01/05 00:48:25;;;;;;;40.87;19.77;;;;;;;2.47;87.96;98298.34;250156;1148;23032;-79
2021/01/05 00:53:28;;;;;;;30.20;15.85;;;;;;;2.50;88.16;98293.34;250272;1148;22939;-78
2021/01/05 00:58:31;;;;;;;30.87;15.00;;;;;;;2.50;87.78;98295.98;251553;1148;22874;-80
2021/01/05 01:03:33;;;;;;;24.23;13.80;;;;;;;2.47;87.62;98285.91;250089;1148;22949;-79
2021/01/05 01:08:36;;;;;;;28.30;14.67;;;;;;;2.44;87.43;98281.12;250245;1148;22991;-79
2021/01/05 01:13:39;;;;;;;26.90;14.90;;;;;;;2.38;87.79;98290.84;250295;1152;22982;-78
2021/01/05 01:18:42;;;;;;;24.63;12.30;;;;;;;2.40;87.50;98280.02;250099;1147;22951;-77
2021/01/05 01:23:45;;;;;;;29.87;15.57;;;;;;;2.40;87.60;98286.09;250371;1148;23148;-77
2021/01/05 01:28:48;;;;;;;24.75;13.10;;;;;;;2.42;87.62;98285.87;250508;1147;23055;-78
2021/01/05 01:33:53;;;;;;;25.65;14.10;;;;;;;2.40;87.56;98287.95;250538;1147;26092;-79
2021/01/05 01:38:55;;;;;;;24.47;13.03;;;;;;;2.39;87.48;98287.16;250106;1152;23004;-78
2021/01/05 01:43:59;;;;;;;24.27;13.73;;;;;;;2.35;87.55;98275.47;250212;1148;23292;-76
2021/01/05 01:49:02;;;;;;;25.37;14.03;;;;;;;2.34;87.75;98275.72;250142;1152;22936;-79
2021/01/05 01:54:31;;;;;;;21.30;11.13;;;;;;;2.31;87.61;98273.55;250650;1147;22962;-77
2021/01/05 01:59:47;;;;;;;25.93;12.90;;;;;;;2.25;87.43;98262.12;250416;1148;22995;-78
2021/01/05 02:05:32;;;;;;;25.35;13.35;;;;;;;2.26;87.95;98258.44;250335;1148;23051;-80
2021/01/05 02:10:46;;;;;;;20.82;12.35;;;;;;;2.27;87.59;98248.66;250158;1148;22886;-78
2021/01/05 02:15:51;;;;;;;25.37;12.20;;;;;;;2.25;87.40;98243.62;249963;1148;23079;-78
2021/01/05 02:21:00;;;;;;;26.40;13.70;;;;;;;2.22;88.03;98244.94;249908;1153;23023;-80
2021/01/05 02:26:11;;;;;;;27.60;13.47;;;;;;;2.24;88.06;98236.75;250299;1148;25725;-79
2021/01/05 02:31:19;;;;;;;26.70;13.40;;;;;;;2.25;88.12;98237.55;250275;1148;26407;-79
2021/01/05 02:36:44;;;;;;;24.35;12.40;;;;;;;2.26;88.05;98237.30;250325;1148;23042;-79
2021/01/05 02:42:13;;;;;;;22.93;11.13;;;;;;;2.24;87.99;98226.19;249735;1151;22922;-79
2021/01/05 02:48:05;;;;;;;29.80;14.35;;;;;;;2.22;88.12;98223.79;250153;1147;26373;-78
2021/01/05 02:54:04;;;;;;;32.70;15.20;;;;;;;2.29;88.00;98218.29;250120;1148;23028;-81
2021/01/05 02:59:51;;;;;;;27.70;13.90;;;;;;;2.34;88.35;98209.64;250224;1148;22976;-78
2021/01/05 03:05:13;;;;;;;35.20;14.65;;;;;;;2.42;88.07;98201.27;250127;1148;23007;-78
2021/01/05 03:10:59;;;;;;;26.10;13.00;;;;;;;2.43;88.57;98196.77;249973;1148;22953;-77
2021/01/05 03:16:32;;;;;;;38.47;15.60;;;;;;;2.40;88.22;98185.63;250106;1147;23126;-79
2021/01/05 03:21:57;;;;;;;38.30;15.73;;;;;;;2.41;88.51;98189.09;250285;1146;22997;-82
2021/01/05 03:27:19;;;;;;;35.37;15.67;;;;;;;2.42;88.43;98182.77;250134;1148;22960;-76
2021/01/05 03:32:40;;;;;;;33.63;14.90;;;;;;;2.45;88.54;98182.26;249954;1151;23392;-78
2021/01/05 03:38:01;;;;;;;29.73;14.33;;;;;;;2.43;88.28;98175.62;250160;1147;22943;-79
2021/01/05 03:43:23;;;;;;;29.85;14.20;;;;;;;2.36;88.82;98167.88;250298;1147;23120;-77
2021/01/05 03:48:44;;;;;;;26.47;13.33;;;;;;;2.33;88.67;98160.45;250103;1151;22920;-80
2021/01/05 03:54:05;;;;;;;25.85;13.65;;;;;;;2.31;88.33;98158.06;250037;1148;22933;-79
2021/01/05 03:59:26;;;;;;;24.40;11.57;;;;;;;2.29;88.95;98156.71;250257;1151;23032;-78
2021/01/05 04:04:47;;;;;;;22.70;11.90;;;;;;;2.31;89.13;98157.25;250307;1148;22946;-78
2021/01/05 04:09:50;;;;;;;17.80;9.25;;;;;;;2.28;89.25;98152.47;250090;1151;23180;-79
2021/01/05 04:14:52;;;;;;;20.80;10.00;;;;;;;2.22;88.95;98155.08;250453;1154;23042;-78
2021/01/05 04:19:54;;;;;;;21.73;11.37;;;;;;;2.20;88.73;98151.08;250415;1148;23450;-79
2021/01/05 04:24:56;;;;;;;19.90;9.30;;;;;;;2.18;88.86;98158.45;250310;1153;23526;-79
2021/01/05 04:29:58;;;;;;;19.03;9.30;;;;;;;2.16;89.59;98150.77;250496;1148;22936;-79
2021/01/05 04:35:00;;;;;;;18.93;10.17;;;;;;;2.10;89.49;98154.41;250878;1147;22936;-80
2021/01/05 04:40:04;;;;;;;19.57;10.43;;;;;;;2.06;89.43;98145.39;250670;1150;22882;-79
2021/01/05 04:45:16;;;;;;;17.40;8.70;;;;;;;2.03;89.57;98138.75;250639;1146;25993;-78
2021/01/05 04:50:32;;;;;;;16.27;8.93;;;;;;;1.99;89.55;98144.78;249925;1148;22957;-79
2021/01/05 04:55:44;;;;;;;15.27;8.30;;;;;;;1.95;89.59;98138.40;249992;1148;24568;-78
2021/01/05 05:00:47;;;;;;;16.03;8.40;;;;;;;1.93;89.03;98135.19;250441;1149;22896;-79
2021/01/05 05:06:20;;;;;;;15.53;8.40;;;;;;;1.88;89.18;98120.88;250033;1150;23035;-79
2021/01/05 05:11:26;;;;;;;13.10;6.85;;;;;;;1.87;89.37;98124.59;250409;1147;22914;-79
2021/01/05 05:17:18;;;;;;;13.57;7.27;;;;;;;1.88;89.92;98117.45;250197;1153;23762;-79
2021/01/05 05:22:58;;;;;;;13.30;7.50;;;;;;;1.86;89.30;98108.96;250116;1151;22938;-79
2021/01/05 05:28:19;;;;;;;10.80;7.17;;;;;;;1.85;89.12;98115.31;250181;1148;22921;-78
2021/01/05 05:33:30;;;;;;;15.95;6.65;;;;;;;1.80;89.70;98113.39;250061;1148;22942;-79
2021/01/05 05:38:47;;;;;;;11.00;6.53;;;;;;;1.76;89.99;98108.86;250473;1147;22953;-80
2021/01/05 05:43:59;;;;;;;11.77;5.87;;;;;;;1.70;89.94;98111.43;250523;1152;23042;-86
2021/01/05 05:49:34;;;;;;;10.90;6.20;;;;;;;1.68;90.24;98107.47;250830;1147;22999;-81
2021/01/05 05:54:36;;;;;;;12.17;6.40;;;;;;;1.69;90.01;98101.12;250376;1147;22947;-80
2021/01/05 05:59:56;;;;;;;11.77;7.07;;;;;;;1.70;89.90;98114.07;250664;1148;22994;-77
2021/01/05 06:04:59;;;;;;;10.83;6.00;;;;;;;1.73;90.23;98099.58;250376;1148;23039;-78
2021/01/05 06:10:01;;;;;;;12.80;6.33;;;;;;;1.75;90.77;98102.79;250238;1148;22974;-79
2021/01/05 06:15:05;;;;;;;10.60;6.33;;;;;;;1.78;90.82;98096.22;250713;1148;22889;-79
2021/01/05 06:20:08;;;;;;;11.63;6.73;;;;;;;1.79;90.29;98093.33;250010;1147;22987;-79
2021/01/05 06:25:11;;;;;;;11.63;6.77;;;;;;;1.81;90.63;98093.08;249847;1148;22986;-79
2021/01/05 06:30:14;;;;;;;10.50;6.00;;;;;;;1.80;90.15;98089.63;250534;1147;22912;-76
2021/01/05 06:35:19;;;;;;;12.10;6.80;;;;;;;1.78;90.64;98085.66;250248;1148;23219;-78
2021/01/05 06:40:25;;;;;;;11.70;6.13;;;;;;;1.76;90.58;98087.73;250269;1148;22954;-78
2021/01/05 06:45:30;;;;;;;9.73;5.90;;;;;;;1.76;90.82;98093.80;250609;1155;22980;-79
2021/01/05 06:50:33;;;;;;;13.03;6.60;;;;;;;1.76;91.00;98087.73;251077;1148;26600;-80
2021/01/05 06:55:35;;;;;;;11.00;6.90;;;;;;;1.74;90.50;98085.34;250981;1148;22891;-79
2021/01/05 07:00:37;;;;;;;11.23;6.63;;;;;;;1.76;90.82;98082.45;251689;1147;22936;-78
2021/01/05 07:05:40;;;;;;;10.47;6.10;;;;;;;1.77;91.25;98082.20;251179;1147;22906;-79
2021/01/05 07:10:42;;;;;;;10.43;6.50;;;;;;;1.78;90.58;98075.88;251972;1147;24230;-80
2021/01/05 07:15:45;;;;;;;10.10;6.90;;;;;;;1.80;90.71;98081.70;250946;1147;22900;-80
2021/01/05 07:20:48;;;;;;;10.60;6.27;;;;;;;1.82;91.25;98087.55;251366;1147;22943;-78
2021/01/05 07:25:50;;;;;;;9.30;5.23;;;;;;;1.81;90.93;98079.87;251690;1147;23356;-80
2021/01/05 07:30:52;;;;;;;10.40;5.90;;;;;;;1.79;90.42;98068.74;252529;1147;22963;-80
2021/01/05 07:35:54;;;;;;;8.63;5.00;;;;;;;1.80;90.76;98065.85;253675;1147;23440;-80
2021/01/05 07:40:56;;;;;;;7.30;5.27;;;;;;;1.76;90.15;98058.69;252797;1147;22911;-81
2021/01/05 07:45:58;;;;;;;8.33;5.00;;;;;;;1.73;90.81;98059.19;253928;1147;23040;-80
2021/01/05 07:51:02;;;;;;;7.77;4.97;;;;;;;1.70;90.51;98053.34;252361;1147;27363;-80
2021/01/05 07:56:05;;;;;;;7.87;5.03;;;;;;;1.72;91.18;98058.37;253595;1147;22967;-80
2021/01/05 08:01:07;;;;;;;7.60;5.07;;;;;;;1.74;90.35;98055.50;251625;1147;22958;-80
2021/01/05 08:06:10;;;;;;;8.63;4.90;;;;;;;1.77;91.17;98061.07;252869;1147;22969;-81
2021/01/05 08:11:13;;;;;;;8.87;5.57;;;;;;;1.78;90.82;98057.39;253515;1147;27253;-81
2021/01/05 08:16:15;;;;;;;8.00;4.97;;;;;;;1.80;91.15;98063.21;253555;1147;22942;-80
2021/01/05 08:21:22;;;;;;;9.03;4.70;;;;;;;1.79;90.91;98058.18;252947;1147;23015;-81
2021/01/05 08:26:26;;;;;;;6.23;4.07;;;;;;;1.78;91.17;98049.47;253485;1147;23010;-79
2021/01/05 08:31:40;;;;;;;6.30;3.57;;;;;;;1.77;90.66;98047.87;253089;1147;22971;-80
2021/01/05 08:36:42;;;;;;;5.67;3.77;;;;;;;1.73;90.60;98038.06;253846;1148;22998;-80
2021/01/05 08:41:45;;;;;;;6.03;4.00;;;;;;;1.67;90.65;98038.00;252481;1147;23017;-81
2021/01/05 08:46:48;;;;;;;6.43;3.87;;;;;;;1.66;90.45;98038.25;252906;1148;22944;-80
2021/01/05 08:51:52;;;;;;;6.33;3.90;;;;;;;1.63;91.13;98033.47;253003;1147;22912;-79
2021/01/05 08:56:56;;;;;;;6.10;3.90;;;;;;;1.61;90.44;98027.63;253023;1146;22963;-82
2021/01/05 09:02:02;;;;;;;6.00;4.20;;;;;;;1.60;90.56;98020.77;252628;1147;22943;-82
2021/01/05 09:07:04;;;;;;;7.33;4.27;;;;;;;1.60;91.08;98023.41;252806;1147;23652;-82
2021/01/05 09:12:07;;;;;;;7.93;4.53;;;;;;;1.63;90.66;98014.98;252534;1147;23070;-81
2021/01/05 09:17:09;;;;;;;7.10;3.73;;;;;;;1.64;90.57;98012.09;253747;1147;22994;-82
2021/01/05 09:22:12;;;;;;;6.63;3.97;;;;;;;1.64;90.80;98012.09;253070;1147;23117;-82
2021/01/05 09:27:14;;;;;;;7.73;5.20;;;;;;;1.62;90.63;98011.53;253391;1148;22941;-82
2021/01/05 09:32:16;;;;;;;7.90;4.73;;;;;;;1.56;90.87;98020.45;253024;1147;22901;-81
2021/01/05 09:37:18;;;;;;;7.57;4.80;;;;;;;1.54;90.62;98014.64;252739;1148;22974;-81
2021/01/05 09:42:21;;;;;;;6.83;4.63;;;;;;;1.57;90.83;98008.05;252936;1147;26025;-81
2021/01/05 09:47:23;;;;;;;7.20;4.03;;;;;;;1.59;90.45;98008.61;252894;1147;22969;-83
2021/01/05 09:52:25;;;;;;;5.17;3.60;;;;;;;1.56;90.76;98007.25;253287;1147;23029;-83
2021/01/05 09:57:27;;;;;;;6.33;3.40;;;;;;;1.54;90.26;97996.95;253782;1147;22914;-81
2021/01/05 10:02:29;;;;;;;6.00;4.40;;;;;;;1.57;90.59;97984.28;253568;1147;22947;-82
2021/01/05 10:07:31;;;;;;;6.20;3.90;;;;;;;1.60;90.21;97983.81;253607;1146;22924;-82
2021/01/05 10:12:33;;;;;;;6.10;3.80;;;;;;;1.61;90.87;97983.56;252955;1147;22955;-80
2021/01/05 10:17:36;;;;;;;9.27;3.87;;;;;;;1.64;90.66;97984.91;252919;1147;23139;-82
2021/01/05 10:22:39;;;;;;;7.43;3.97;;;;;;;1.58;90.65;97978.78;253079;1147;27192;-80
2021/01/05 10:27:41;;;;;;;6.67;3.80;;;;;;;1.54;89.98;97978.47;252710;1147;23180;-80
2021/01/05 10:32:45;;;;;;;7.70;4.40;;;;;;;1.57;90.85;97968.44;251754;1147;22942;-82
2021/01/05 10:37:48;;;;;;;9.13;5.57;;;;;;;1.58;89.97;97970.86;252480;1148;22965;-82
2021/01/05 10:42:50;;;;;;;13.25;7.85;;;;;;;1.61;90.71;97966.90;252589;1147;22967;-82
2021/01/05 10:47:52;;;;;;;11.30;6.30;;;;;;;1.56;90.73;97962.38;253223;1147;22925;-83
2021/01/05 10:52:54;;;;;;;10.77;5.73;;;;;;;1.49;90.43;97959.93;253210;1147;22918;-86
2021/01/05 10:57:57;;;;;;;10.05;5.40;;;;;;;1.50;90.26;97956.25;253838;1148;22967;-84
2021/01/05 11:02:59;;;;;;;8.03;5.47;;;;;;;1.52;91.01;97951.51;252916;1148;23777;-85
2021/01/05 11:08:01;;;;;;;6.97;4.20;;;;;;;1.57;90.70;97950.78;253111;1147;23234;-83
2021/01/05 11:13:04;;;;;;;5.73;3.60;;;;;;;1.56;90.65;97949.17;253470;1147;22930;-83
2021/01/05 11:18:10;;;;;;;4.23;3.20;;;;;;;1.56;90.47;97946.53;253030;1146;23026;-83
2021/01/05 11:23:12;;;;;;;5.35;3.10;;;;;;;1.49;90.30;97952.02;253568;1147;23045;-85
2021/01/05 11:28:14;;;;;;;5.33;2.73;;;;;;;1.47;90.82;97938.28;252707;1148;22939;-83
2021/01/05 11:33:17;;;;;;;5.10;2.90;;;;;;;1.45;90.28;97953.55;253024;1147;22977;-82
2021/01/05 11:38:19;;;;;;;4.63;3.17;;;;;;;1.41;90.29;97947.17;253142;1148;22928;-83
2021/01/05 11:43:21;;;;;;;7.33;4.40;;;;;;;1.41;91.20;97949.03;252758;1148;22955;-82
2021/01/05 11:48:23;;;;;;;7.87;4.47;;;;;;;1.41;90.73;97949.81;252578;1147;22958;-82
2021/01/05 11:53:25;;;;;;;10.13;5.20;;;;;;;1.39;89.96;97944.00;252983;1147;25896;-83
2021/01/05 11:58:27;;;;;;;10.37;6.00;;;;;;;1.42;90.63;97935.58;252929;1147;22896;-82
2021/01/05 12:03:29;;;;;;;9.57;5.90;;;;;;;1.44;90.44;97937.97;253093;1146;22798;-82
2021/01/05 12:08:31;;;;;;;9.93;6.30;;;;;;;1.45;90.14;97932.44;253850;1147;22962;-82
2021/01/05 12:13:34;;;;;;;9.10;5.40;;;;;;;1.42;90.11;97932.16;253167;1147;23186;-82
2021/01/05 12:18:39;;;;;;;9.07;5.13;;;;;;;1.40;90.75;97931.59;252967;1147;26366;-84
2021/01/05 12:23:41;;;;;;;8.73;5.43;;;;;;;1.39;90.93;97928.17;252816;1147;22964;-78
2021/01/05 12:28:43;;;;;;;8.27;4.73;;;;;;;1.38;90.01;97929.20;251588;1147;22937;-80
2021/01/05 12:33:45;;;;;;;9.87;5.33;;;;;;;1.36;90.34;97933.95;252886;1147;23008;-80
2021/01/05 12:38:47;;;;;;;10.70;6.27;;;;;;;1.33;90.65;97937.06;252797;1147;24488;-82
2021/01/05 12:43:49;;;;;;;8.37;5.33;;;;;;;1.32;90.81;97932.84;252740;1147;22966;-81
2021/01/05 12:48:53;;;;;;;9.43;4.50;;;;;;;1.32;90.62;97941.55;253152;1147;22950;-83
2021/01/05 12:54:22;;;;;;;8.70;4.80;;;;;;;1.33;90.38;97942.34;252650;1148;26536;-81
2021/01/05 12:59:34;;;;;;;8.70;5.40;;;;;;;1.32;90.47;97938.91;253188;1147;23076;-81
2021/01/05 13:04:36;;;;;;;8.60;4.77;;;;;;;1.31;90.86;97934.67;253236;1147;23684;-82
2021/01/05 13:09:39;;;;;;;7.70;4.60;;;;;;;1.31;89.87;97944.44;252930;1148;23684;-81
2021/01/05 13:14:41;;;;;;;7.23;4.10;;;;;;;1.28;90.75;97951.01;253767;1147;23213;-82
2021/01/05 13:19:44;;;;;;;7.17;4.80;;;;;;;1.27;90.07;97952.05;252775;1148;24345;-82
2021/01/05 13:24:46;;;;;;;9.67;4.70;;;;;;;1.27;91.26;97951.26;253153;1147;22858;-82
2021/01/05 13:29:47;;;;;;;6.70;3.70;;;;;;;1.25;90.47;97951.51;253194;1147;23076;-82
2021/01/05 13:34:50;;;;;;;8.43;5.10;;;;;;;1.23;89.96;97947.52;253577;1148;23049;-78
2021/01/05 13:39:52;;;;;;;8.43;4.40;;;;;;;1.24;90.50;97954.40;253044;1148;22926;-84
2021/01/05 13:44:55;;;;;;;8.70;4.40;;;;;;;1.18;90.29;97949.05;252988;1147;24577;-84
2021/01/05 13:49:57;;;;;;;7.10;4.47;;;;;;;1.11;90.89;97955.58;253051;1148;22959;-84
2021/01/05 13:55:17;;;;;;;8.20;4.20;;;;;;;1.11;90.80;97953.73;252543;1147;22942;-83
2021/01/05 14:00:20;;;;;;;7.03;4.47;;;;;;;1.07;90.09;97955.27;252686;1147;22904;-82
2021/01/05 14:05:22;;;;;;;7.93;4.63;;;;;;;1.05;90.41;97964.46;252487;1148;23729;-83
2021/01/05 14:10:24;;;;;;;8.30;4.50;;;;;;;1.04;90.03;97968.95;253176;1147;22960;-81
2021/01/05 14:15:26;;;;;;;9.60;5.70;;;;;;;0.98;90.83;97972.55;253269;1146;22973;-83
2021/01/05 14:20:28;;;;;;;10.33;6.30;;;;;;;0.97;90.19;97973.62;253780;1147;22950;-81
2021/01/05 14:25:30;;;;;;;7.90;4.57;;;;;;;0.94;90.82;97963.56;253391;1147;22972;-83
2021/01/05 14:30:34;;;;;;;13.05;5.85;;;;;;;0.85;90.30;97974.53;253356;1147;22913;-81
2021/01/05 14:35:37;;;;;;;10.17;6.37;;;;;;;0.82;90.49;97975.00;252886;1147;23060;-81
2021/01/05 14:40:39;;;;;;;9.53;4.40;;;;;;;0.80;90.40;97974.45;253024;1147;22878;-82
2021/01/05 14:45:41;;;;;;;9.57;5.67;;;;;;;0.78;90.65;97975.73;253218;1147;22942;-80
2021/01/05 14:50:45;;;;;;;12.23;6.90;;;;;;;0.77;90.33;97990.77;253300;1147;22988;-83
2021/01/05 14:55:47;;;;;;;12.53;6.93;;;;;;;0.79;90.17;97990.52;253013;1148;27234;-83
2021/01/05 15:00:50;;;;;;;14.47;8.70;;;;;;;0.77;90.00;97982.86;253399;1147;23421;-81
2021/01/05 15:05:52;;;;;;;12.97;7.43;;;;;;;0.78;90.82;97989.70;253944;1146;22919;-81
2021/01/05 15:10:54;;;;;;;13.47;7.67;;;;;;;0.74;89.81;97993.90;253863;1147;22912;-80
2021/01/05 15:15:56;;;;;;;15.80;8.40;;;;;;;0.75;90.59;97995.47;253965;1147;22980;-82
2021/01/05 15:20:58;;;;;;;14.55;7.55;;;;;;;0.75;90.62;98000.75;253184;1147;22946;-81
2021/01/05 15:26:01;;;;;;;13.97;7.17;;;;;;;0.71;90.57;97994.36;252710;1147;22961;-84
2021/01/05 15:31:03;;;;;;;12.15;7.35;;;;;;;0.67;90.18;98001.97;252232;1147;22967;-81
2021/01/05 15:36:11;;;;;;;13.63;8.07;;;;;;;0.64;91.01;97996.37;252283;1148;23036;-83
2021/01/05 15:41:14;;;;;;;13.23;7.57;;;;;;;0.60;91.17;97997.90;252183;1147;22939;-82
2021/01/05 15:46:25;;;;;;;12.57;8.00;;;;;;;0.55;90.55;97995.21;252229;1148;22977;-81
2021/01/05 15:51:27;;;;;;;15.67;8.57;;;;;;;0.54;90.35;98004.94;252474;1147;22963;-83
2021/01/05 15:56:29;;;;;;;11.60;7.30;;;;;;;0.52;91.26;98007.03;252053;1147;22983;-80
2021/01/05 16:01:36;;;;;;;16.00;9.60;;;;;;;0.51;90.69;98011.48;252204;1147;24739;-80
2021/01/05 16:06:41;;;;;;;16.80;9.60;;;;;;;0.57;91.04;98001.81;252016;1148;23037;-82
2021/01/05 16:11:50;;;;;;;18.20;9.73;;;;;;;0.61;91.60;98000.29;252171;1147;26043;-81
2021/01/05 16:16:53;;;;;;;16.63;9.60;;;;;;;0.63;90.96;97994.77;251597;1149;22932;-82
2021/01/05 16:21:58;;;;;;;13.73;8.40;;;;;;;0.64;90.65;98005.10;251760;1148;23102;-81
2021/01/05 16:27:02;;;;;;;11.23;7.10;;;;;;;0.67;90.83;98009.06;251954;1147;24324;-85
2021/01/05 16:32:05;;;;;;;11.80;7.80;;;;;;;0.73;91.19;98020.48;251947;1148;23100;-80
2021/01/05 16:37:09;;;;;;;16.23;7.93;;;;;;;0.81;91.03;98020.89;251520;1155;22904;-80
2021/01/05 16:42:11;;;;;;;13.83;7.50;;;;;;;0.79;91.57;98022.95;251759;1146;25858;-80
2021/01/05 16:47:13;;;;;;;10.70;6.60;;;;;;;0.76;91.23;98026.08;251799;1153;22880;-81
2021/01/05 16:52:16;;;;;;;13.65;7.25;;;;;;;0.71;90.83;98022.58;251546;1147;22924;-84
2021/01/05 16:57:18;;;;;;;13.05;7.50;;;;;;;0.67;90.84;98030.97;251731;1148;22954;-84
2021/01/05 17:02:21;;;;;;;10.25;6.85;;;;;;;0.67;90.68;98038.06;251721;1148;22939;-81
2021/01/05 17:07:25;;;;;;;12.50;7.63;;;;;;;0.68;90.34;98042.30;251545;1148;22973;-80
2021/01/05 17:12:28;;;;;;;10.67;6.60;;;;;;;0.69;90.90;98041.27;251841;1148;23159;-83
2021/01/05 17:17:32;;;;;;;12.00;7.70;;;;;;;0.65;90.30;98042.80;251721;1152;23044;-84
2021/01/05 17:22:35;;;;;;;12.43;8.13;;;;;;;0.66;91.27;98049.67;251923;1148;22950;-82
2021/01/05 17:27:37;;;;;;;13.63;8.47;;;;;;;0.67;91.22;98045.97;251883;1150;22941;-83
2021/01/05 17:32:39;;;;;;;13.00;7.70;;;;;;;0.68;90.21;98050.21;251902;1148;22932;-84
2021/01/05 17:37:42;;;;;;;14.23;7.93;;;;;;;0.71;90.41;98048.94;251928;1147;26360;-80
2021/01/05 17:42:44;;;;;;;15.60;9.30;;;;;;;0.71;91.49;98052.36;251606;1148;22982;-82
2021/01/05 17:47:50;;;;;;;13.10;6.90;;;;;;;0.79;90.62;98059.86;251655;1148;22954;-81
2021/01/05 17:52:52;;;;;;;11.27;6.40;;;;;;;0.77;90.60;98063.78;251975;1147;22949;-81
2021/01/05 17:57:55;;;;;;;13.10;6.60;;;;;;;0.71;90.49;98067.39;251599;1148;22943;-82
2021/01/05 18:02:58;;;;;;;18.53;7.93;;;;;;;0.65;90.20;98072.58;251492;1148;22943;-82
2021/01/05 18:08:00;;;;;;;16.70;8.20;;;;;;;0.63;89.74;98081.76;251525;1148;23934;-81
2021/01/05 18:13:03;;;;;;;16.37;8.13;;;;;;;0.69;91.26;98086.09;251591;1147;22939;-82
2021/01/05 18:18:05;;;;;;;14.40;7.60;;;;;;;0.74;91.18;98090.63;251816;1148;22945;-81
2021/01/05 18:23:12;;;;;;;14.80;8.30;;;;;;;0.77;90.38;98088.33;251508;1147;23077;-82
2021/01/05 18:28:15;;;;;;;21.47;10.10;;;;;;;0.74;90.94;98094.09;251891;1149;22982;-81
2021/01/05 18:33:17;;;;;;;26.00;12.05;;;;;;;0.73;90.31;98092.48;251825;1147;23035;-81
2021/01/05 18:38:19;;;;;;;27.17;12.97;;;;;;;0.74;90.02;98094.09;251597;1151;23042;-83
2021/01/05 18:43:22;;;;;;;31.10;13.73;;;;;;;0.75;90.25;98103.57;251708;1147;22975;-82
2021/01/05 18:48:24;;;;;;;21.37;12.57;;;;;;;0.69;89.99;98107.18;251908;1153;23106;-81
2021/01/05 18:53:26;;;;;;;18.23;10.13;;;;;;;0.64;90.57;98115.00;252020;1147;23022;-81
2021/01/05 18:58:29;;;;;;;15.10;10.30;;;;;;;0.56;89.61;98125.94;252123;1151;22976;-83
2021/01/05 19:03:31;;;;;;;11.30;7.20;;;;;;;0.55;89.86;98121.72;252027;1155;22967;-82
2021/01/05 19:08:34;;;;;;;12.10;8.60;;;;;;;0.49;90.38;98124.27;251988;1148;22968;-80
2021/01/05 19:13:37;;;;;;;12.93;7.47;;;;;;;0.42;90.07;98120.98;251557;1148;22957;-80
2021/01/05 19:18:41;;;;;;;10.90;6.70;;;;;;;0.37;90.56;98120.89;251936;1151;23006;-80
2021/01/05 19:23:44;;;;;;;7.65;5.00;;;;;;;0.40;90.95;98120.41;251498;1150;22893;-83
2021/01/05 19:28:49;;;;;;;14.53;7.60;;;;;;;0.41;90.28;98129.92;251875;1150;22934;-81
2021/01/05 19:33:53;;;;;;;12.13;6.97;;;;;;;0.46;90.85;98132.66;251885;1147;28192;-83
2021/01/05 19:38:58;;;;;;;13.27;8.23;;;;;;;0.43;90.98;98133.11;251952;1147;22970;-81
2021/01/05 19:44:00;;;;;;;10.37;6.47;;;;;;;0.49;90.38;98140.08;251942;1148;26489;-80
2021/01/05 19:49:04;;;;;;;12.53;8.10;;;;;;;0.44;90.44;98137.34;252178;1148;22991;-81
2021/01/05 19:54:06;;;;;;;15.20;8.40;;;;;;;0.43;90.09;98145.49;251969;1150;22967;-83
2021/01/05 19:59:09;;;;;;;15.90;8.97;;;;;;;0.35;89.84;98138.79;252196;1148;22938;-82
2021/01/05 20:04:15;;;;;;;13.50;8.50;;;;;;;0.30;90.63;98147.38;251648;1155;23113;-81
2021/01/05 20:09:17;;;;;;;12.50;7.43;;;;;;;0.27;90.20;98153.13;252257;1148;22967;-82
2021/01/05 20:14:19;;;;;;;11.20;8.03;;;;;;;0.32;90.58;98155.05;252392;1148;22994;-80
2021/01/05 20:19:22;;;;;;;10.40;5.97;;;;;;;0.34;89.90;98155.63;252368;1148;22926;-81
2021/01/05 20:24:24;;;;;;;11.40;7.00;;;;;;;0.30;90.66;98162.41;251871;1155;22880;-82
2021/01/05 20:29:26;;;;;;;10.03;5.80;;;;;;;0.34;90.73;98160.89;252210;1148;22926;-80
2021/01/05 20:34:29;;;;;;;14.27;7.57;;;;;;;0.31;90.28;98159.53;252114;1152;23080;-83
2021/01/05 20:39:34;;;;;;;14.63;8.63;;;;;;;0.32;90.86;98168.22;252247;1148;22849;-81
2021/01/05 20:44:36;;;;;;;13.73;7.73;;;;;;;0.39;90.02;98160.97;251809;1155;22945;-81
2021/01/05 20:49:38;;;;;;;17.67;10.23;;;;;;;0.41;90.24;98176.56;252304;1150;22898;-81
2021/01/05 20:54:43;;;;;;;16.17;9.60;;;;;;;0.44;90.21;98176.88;251835;1151;22943;-81
2021/01/05 20:59:45;;;;;;;16.05;8.10;;;;;;;0.39;90.71;98170.72;252077;1150;22958;-82
2021/01/05 21:04:47;;;;;;;14.80;9.23;;;;;;;0.39;90.28;98182.05;251945;1148;22977;-82
2021/01/05 21:09:50;;;;;;;14.47;8.83;;;;;;;0.39;90.44;98187.31;252006;1148;23005;-83
2021/01/05 21:14:52;;;;;;;17.65;8.75;;;;;;;0.43;91.17;98191.08;251902;1153;22971;-79
2021/01/05 21:19:54;;;;;;;12.87;8.07;;;;;;;0.42;90.49;98186.87;251643;1148;22947;-80
2021/01/05 21:24:57;;;;;;;15.33;8.90;;;;;;;0.47;90.54;98196.69;251615;1148;22953;-81
2021/01/05 21:29:59;;;;;;;15.53;9.07;;;;;;;0.49;90.23;98189.34;251949;1148;23053;-81
2021/01/05 21:35:03;;;;;;;14.80;7.40;;;;;;;0.49;90.76;98194.61;252012;1148;22968;-80
2021/01/05 21:40:07;;;;;;;17.00;8.27;;;;;;;0.46;90.19;98182.73;252851;1148;23156;-81
2021/01/05 21:45:16;;;;;;;18.07;8.83;;;;;;;0.44;90.36;98182.15;251752;1155;22976;-82
2021/01/05 21:50:29;;;;;;;18.50;9.93;;;;;;;0.46;90.00;98187.18;252181;1148;23559;-81
2021/01/05 21:55:33;;;;;;;23.80;12.80;;;;;;;0.43;89.85;98188.45;251736;1148;22942;-83
2021/01/05 22:00:35;;;;;;;18.90;11.40;;;;;;;0.41;90.59;98185.27;251897;1150;23038;-81
2021/01/05 22:05:37;;;;;;;24.67;12.83;;;;;;;0.39;90.37;98178.63;251793;1153;22964;-82
2021/01/05 22:10:41;;;;;;;29.20;14.80;;;;;;;0.38;90.45;98177.83;251768;1148;23100;-81
2021/01/05 22:15:44;;;;;;;23.13;13.17;;;;;;;0.36;90.30;98182.53;251811;1152;22988;-82
2021/01/05 22:20:47;;;;;;;25.60;13.13;;;;;;;0.33;90.33;98175.89;251746;1150;22995;-81
2021/01/05 22:25:50;;;;;;;21.20;13.10;;;;;;;0.35;89.91;98175.67;251589;1147;22943;-80
2021/01/05 22:30:53;;;;;;;21.10;11.33;;;;;;;0.31;90.05;98187.72;251996;1150;23099;-81
2021/01/05 22:35:56;;;;;;;25.00;12.10;;;;;;;0.26;90.79;98183.14;251888;1149;22958;-81
2021/01/05 22:41:00;;;;;;;21.53;11.60;;;;;;;0.28;90.24;98178.45;251936;1148;23319;-81
2021/01/05 22:46:05;;;;;;;16.70;8.63;;;;;;;0.30;90.12;98176.37;252001;1152;22940;-79
2021/01/05 22:51:07;;;;;;;21.90;10.63;;;;;;;0.35;91.03;98175.67;251757;1148;22984;-82
2021/01/05 22:56:09;;;;;;;17.73;9.90;;;;;;;0.43;90.89;98172.63;251909;1148;22699;-83
2021/01/05 23:01:12;;;;;;;15.57;8.60;;;;;;;0.44;89.88;98168.97;251537;1147;23113;-81
2021/01/05 23:06:14;;;;;;;23.13;10.93;;;;;;;0.40;90.80;98183.66;251339;1155;22931;-82
2021/01/05 23:11:17;;;;;;;18.67;10.43;;;;;;;0.34;89.88;98179.34;251787;1147;23080;-84
2021/01/05 23:16:22;;;;;;;18.30;8.70;;;;;;;0.27;90.69;98187.37;251704;1148;22959;-80
2021/01/05 23:21:27;;;;;;;18.20;9.10;;;;;;;0.20;89.75;98199.90;251659;1148;22951;-80
2021/01/05 23:26:30;;;;;;;18.77;9.37;;;;;;;0.21;91.09;98198.88;251888;1148;22960;-82
2021/01/05 23:31:36;;;;;;;16.30;8.10;;;;;;;0.25;91.21;98196.55;251855;1148;27215;-81
2021/01/05 23:36:46;;;;;;;13.00;7.80;;;;;;;0.26;90.57;98198.16;251786;1153;22930;-81
2021/01/05 23:41:50;;;;;;;16.70;8.73;;;;;;;0.28;91.27;98188.17;251682;1148;22995;-82